KOVS

Boscobel Airport

Boscobel, Wisconsin, USA
METAR KOVS 221824Z AUTO 01003KT 7SM SCT016 BKN025 OVC035 M04/M07 A3001 RMK AO2 SNE09 P0000 T10441072
Observed Flight Rules
Jan-22 @ 18:24 UTC (30 minutes ago) Marginal Visual Flight Rules
Wind Visibility Clouds
10° at 3 knots 7 miles
  • Scattered at 1,600' AGL
  • Broken at 2,500' AGL
  • Overcast at 3,500' AGL
Temperatures Readings Precipitation
Current -4°C / 25°F
Dewpoint -7°C / 19°F
Humidity 80%
Altimeter 30.01" Hg
Pressure 1016.22 hPa
Elevation 202
Current Rain 0.01
METAR KOVS 221824Z AUTO 01003KT 7SM SCT016 BKN025 OVC035 M04/M07 A3001 RMK AO2 SNE09 P0000 T10441072
Observed Flight Rules
Jan-22 @ 18:24 UTC
(30 minutes ago)
MVFR
Wind Visibility
10° at 3 knots 7 miles
Clouds
  • Scattered at 1,600' AGL
  • Broken at 2,500' AGL
  • Overcast at 3,500' AGL
Temperature Dewpoint
-4°C / 25°F -7°C / 19°F
Humidity Altimeter Pressure
80% 30.01" Hg 1016.22 hPa
Current Rain
0.01